Latest Coastal Weather Observations for Warrnambool

IDV60701

Issued at 8:41 am EDT Saturday 25 March 2017 (issued every 10 minutes, with the page automatically refreshed every 10 minutes)

About coastal observations | Map of coastal stations | Coastal observations for VIC | Marine services | Other Formats
Station Details ID: 090186 Name: WARRNAMBOOL AIRPORT NDB Lat: -38.29 Lon: 142.45 Height: 70.8 m
Data from the previous 72 hours. | See also: Recent months at Warrnambool
Date/Time
EDT
Temp
°C
Wind Pressure Rain since
9am
mm
Weather Cloud Vis
km
Sea
Height
m
Swell
Dir  Spd
kts
Gust
kts
hPa Trend Height
m
Period
s
Dir
25/08:30am 19.1 N 8 11 1011.3 - 0.0 - Partly cloudy 10 - - - -
25/08:00am 18.2 N 7 9 1011.0 - 0.0 - Partly cloudy 10 - - - -
25/07:30am 17.9 N 7 9 1010.7 - 0.0 - Cloudy 10 - - - -
25/07:00am 17.7 N 9 10 1010.5 - 0.0 - Partly cloudy 10 - - - -
25/06:30am 17.3 NNE 9 9 1010.5 - 0.0 - Partly cloudy 10 - - - -
25/06:00am 17.1 NNE 9 11 1010.5 - 0.0 - Cloudy 10 - - - -
25/05:30am 17.4 NNE 7 9 1010.6 - 0.0 - Cloudy 10 - - - -
25/05:00am 17.7 NNE 7 8 1010.8 - 0.0 - Cloudy 10 - - - -
25/04:30am 17.5 NE 6 8 1010.8 - 0.0 - Cloudy 10 - - - -
25/04:00am 17.4 NE 7 9 1011.1 - 0.0 - Cloudy 10 - - - -
25/03:30am 17.5 NNE 8 11 1011.3 - 0.0 - Cloudy 10 - - - -
25/03:00am 17.5 NNE 8 10 1011.3 - 0.0 - Mostly cloudy 10 - - - -
25/02:30am 17.7 NNE 12 16 1011.6 - 0.0 - Cloudy 10 - - - -
25/02:00am 17.8 NNE 13 17 1011.8 - 0.0 - Partly cloudy 10 - - - -
25/01:30am 17.8 NNE 9 12 1012.1 - 0.0 - Cloudy 10 - - - -
25/01:00am 17.9 NNE 10 13 1012.6 - 0.0 - Partly cloudy 10 - - - -
25/12:30am 17.9 NE 12 17 1013.2 - 0.0 - Partly cloudy 10 - - - -
25/12:00am 18.1 NE 10 15 1013.5 - 0.0 Rain Cloudy 10 - - - -
 
Date/Time
EDT
Temp
°C
Wind Pressure Rain since
9am
mm
Weather Cloud Vis
km
Sea
Height
m
Swell
Dir  Spd
kts
Gust
kts
hPa Trend Height
m
Period
s
Dir
24/11:30pm 18.5 NNE 9 13 1014.8 - 0.0 - - 10 - - - -
24/11:00pm 18.5 NE 8 11 1014.9 - 0.0 - - 10 - - - -
24/10:30pm 18.6 NE 8 11 1015.1 - 0.0 - - 10 - - - -
24/10:00pm 18.7 NE 9 11 1014.7 - 0.0 - - 10 - - - -
24/09:30pm 19.1 NE 7 9 1014.6 - 0.0 - - 10 - - - -
24/09:00pm 19.4 NE 6 9 1014.5 - 0.0 - Mostly cloudy 10 - - - -
24/08:30pm 19.8 ENE 6 8 1014.3 - 0.0 - - 10 - - - -
24/08:00pm 20.2 ENE 6 8 1014.4 - 0.0 - - 10 - - - -
24/07:30pm 20.9 E 6 8 1014.9 - 0.0 - - 10 - - - -
24/07:00pm 22.0 E 5 7 1015.1 - 0.0 - - 10 - - - -
24/06:30pm 22.3 ESE 5 6 1015.4 - 0.0 - - 10 - - - -
24/06:00pm 22.8 SE 7 9 1015.3 - 0.0 - Mostly cloudy 10 - - - -
24/05:30pm 23.7 E 5 6 1015.0 - 0.0 - Partly cloudy 10 - - - -
24/05:00pm 23.9 ENE 5 7 1015.0 - 0.0 - Partly cloudy 10 - - - -
24/04:30pm 24.4 NE 4 7 1015.5 - 0.0 - Partly cloudy 10 - - - -
24/04:00pm 24.2 ENE 8 12 1014.7 - 0.0 - Partly cloudy 10 - - - -
24/03:30pm 23.7 ENE 7 10 1015.4 - 0.0 - Partly cloudy 10 - - - -
24/03:00pm 23.5 ENE 8 11 1015.9 - 0.0 - Mostly cloudy 10 - - - -
24/02:30pm 22.8 NE 10 14 1016.3 - 0.0 - - 10 - - - -
24/02:00pm 22.9 ENE 9 16 1016.5 - 0.0 - - 10 - - - -
24/01:30pm 22.2 NE 10 17 1017.0 - 0.0 - - 10 - - - -
24/01:00pm 21.9 ENE 12 17 1017.4 - 0.0 - - 10 - - - -
24/12:30pm 20.7 ENE 10 15 1018.3 - 0.0 - - 10 - - - -
24/12:00pm 19.3 ENE 11 16 1018.7 - 0.0 - Cloudy 10 - - - -
24/11:37am 18.6 ENE 9 14 1018.9 - 0.0 - Partly cloudy 10 - - - -
24/11:30am 18.1 E 10 15 1019.1 - 0.0 - Partly cloudy 10 - - - -
24/11:27am 18.1 E 10 15 1019.1 - 0.0 - Partly cloudy 10 - - - -
24/11:00am 17.0 E 7 11 1019.4 - 0.0 - Partly cloudy 10 - - - -
24/10:30am 15.5 ESE 6 8 1019.4 - 0.0 - Partly cloudy 10 - - - -
24/10:00am 14.2 SE 5 7 1019.6 - 0.0 - - 10 - - - -
24/09:30am 13.5 SE 4 6 1019.8 - 0.0 - - 10 - - - -
24/09:00am 12.4 ESE 4 5 1019.6 - 0.2 - Cloudy 10 - - - -
24/08:30am 11.9 SE 4 5 1019.5 - 0.2 - - 10 - - - -
24/08:17am 11.5 ESE 3 4 1019.5 - 0.2 - - 10 - - - -
24/08:00am 9.8 E 2 4 1019.4 - 0.2 - - 1 - - - -
24/07:30am 9.4 CALM 0 0 1019.0 - 0.2 - - 1 - - - -
24/07:00am 9.7 E 2 3 1018.9 - 0.2 - - 0.6 - - - -
24/06:34am 10.4 CALM 0 0 1018.8 - 0.2 - - 5 - - - -
24/06:30am 10.7 E 1 3 1018.7 - 0.2 - - 10 - - - -
24/06:00am 11.1 E 5 6 1018.5 - 0.2 - Partly cloudy 10 - - - -
24/05:30am 11.0 NE 4 5 1018.7 - 0.2 - - 10 - - - -
24/05:00am 11.7 ENE 4 6 1018.8 - 0.2 - - 10 - - - -
24/04:30am 11.8 E 5 7 1018.9 - 0.2 - - 10 - - - -
24/04:00am 11.4 ENE 4 6 1019.6 - 0.2 - - 10 - - - -
24/03:30am 12.2 E 3 4 1020.0 - 0.2 - - 10 - - - -
24/03:00am 12.0 ESE 4 5 1020.0 - 0.2 - - 10 - - - -
24/02:30am 12.0 ESE 3 4 1020.4 - 0.2 - - 10 - - - -
24/02:00am 12.2 SE 4 5 1020.4 - 0.2 - - 10 - - - -
24/01:30am 12.5 ESE 4 5 1020.5 - 0.2 - - 10 - - - -
24/01:00am 12.2 SE 5 6 1020.8 - 0.2 - - 10 - - - -
24/12:30am 12.6 CALM 0 0 1020.9 - 0.2 - - 10 - - - -
24/12:00am 12.6 ESE 6 6 1020.8 - 0.2 - - 10 - - - -
 
Date/Time
EDT
Temp
°C
Wind Pressure Rain since
9am
mm
Weather Cloud Vis
km
Sea
Height
m
Swell
Dir  Spd
kts
Gust
kts
hPa Trend Height
m
Period
s
Dir
23/11:30pm 13.0 SE 6 7 1021.0 - 0.2 - - 10 - - - -
23/11:00pm 13.7 ESE 3 5 1021.3 - 0.2 - - 10 - - - -
23/10:30pm 13.6 ESE 5 6 1021.6 - 0.2 - - 10 - - - -
23/10:00pm 14.2 SE 7 8 1021.7 - 0.2 - - 10 - - - -
23/09:30pm 14.6 ESE 8 9 1021.6 - 0.2 - - 10 - - - -
23/09:00pm 15.4 SE 7 9 1021.1 - 0.2 - - 10 - - - -
23/08:30pm 16.0 SE 6 8 1020.9 - 0.2 - - 10 - - - -
23/08:00pm 16.6 SE 7 10 1020.6 - 0.2 - - 10 - - - -
23/07:30pm 17.5 SE 11 15 1020.3 - 0.2 - - 10 - - - -
23/07:00pm 18.8 SE 13 18 1019.9 - 0.2 - - 10 - - - -
23/06:30pm 19.8 SSE 14 19 1019.6 - 0.2 - - 10 - - - -
23/06:00pm 20.2 SSE 16 20 1019.5 - 0.2 - - 10 - - - -
23/05:30pm 20.5 SSE 15 19 1019.5 - 0.2 - - 10 - - - -
23/05:00pm 21.1 SSE 16 19 1019.6 - 0.2 - - 10 - - - -
23/04:30pm 21.2 SSE 16 21 1019.6 - 0.2 - - 10 - - - -
23/04:00pm 21.8 SSE 17 21 1019.5 - 0.2 - Partly cloudy 10 - - - -
23/03:30pm 21.9 SSE 15 20 1019.8 - 0.2 - Partly cloudy 10 - - - -
23/03:00pm 22.4 SSE 16 21 1020.1 - 0.2 - Mostly clear 10 - - - -
23/02:30pm 21.3 SSE 15 19 1020.4 - 0.2 - Partly cloudy 10 - - - -
23/02:00pm 21.5 SSE 12 16 1020.7 - 0.2 - Partly cloudy 10 - - - -
23/01:30pm 22.5 SE 11 17 1020.9 - 0.2 - Partly cloudy 10 - - - -
23/01:00pm 22.2 ESE 11 16 1021.2 - 0.2 - Partly cloudy 10 - - - -
23/12:30pm 20.9 ESE 12 18 1021.7 - 0.2 - Partly cloudy 10 - - - -
23/12:00pm 20.9 ESE 11 17 1022.2 - 0.0 - Partly cloudy 10 - - - -
23/11:30am 19.3 E 12 17 1022.4 - 0.0 - Partly cloudy 10 - - - -
23/11:00am 19.4 ESE 14 20 1022.3 - 0.0 - Partly cloudy 10 - - - -
23/10:30am 18.8 ESE 14 19 1022.3 - 0.0 - - 10 - - - -
23/10:00am 17.9 SE 9 13 1022.4 - 0.0 - - 10 - - - -
23/09:30am 17.2 SE 9 12 1022.2 - 0.0 - - 10 - - - -
23/09:00am 15.9 SE 7 11 1022.2 - 0.0 - - 10 - - - -
23/08:30am 14.5 SE 5 6 1022.0 - 0.0 - - 10 - - - -
23/08:00am 13.4 SE 6 7 1021.7 - 0.0 - - 10 - - - -
23/07:30am 13.0 SE 6 7 1021.4 - 0.0 - - 10 - - - -
23/07:00am 13.2 SE 6 8 1021.1 - 0.0 - - 10 - - - -
23/06:30am 13.5 SE 7 8 1020.9 - 0.0 - - 10 - - - -
23/06:00am 14.0 SE 7 9 1020.7 - 0.0 - - 8 - - - -
23/05:30am 14.1 SE 7 9 1020.7 - 0.0 - - 9 - - - -
23/05:00am 14.1 SE 6 8 1020.7 - 0.0 - - 9 - - - -
23/04:30am 14.0 SE 7 9 1020.8 - 0.0 - - 10 - - - -
23/04:00am 14.1 SE 7 9 1020.8 - 0.0 - - 10 - - - -
23/03:30am 14.1 SE 6 9 1020.8 - 0.0 - - 10 - - - -
23/03:00am 13.8 SE 5 7 1020.7 - 0.0 - - 10 - - - -
23/02:30am 14.3 SE 6 7 1020.8 - 0.0 - - 10 - - - -
23/02:00am 14.3 SE 6 7 1020.8 - 0.0 - - 10 - - - -
23/01:30am 14.7 SE 6 8 1020.9 - 0.0 - - 10 - - - -
23/01:00am 15.0 SE 7 9 1021.0 - 0.0 - - 10 - - - -
23/12:30am 15.2 SE 7 9 1021.1 - 0.0 - - 10 - - - -
23/12:00am 15.3 SE 7 10 1021.0 - 0.0 - - 10 - - - -
 
Date/Time
EDT
Temp
°C
Wind Pressure Rain since
9am
mm
Weather Cloud Vis
km
Sea
Height
m
Swell
Dir  Spd
kts
Gust
kts
hPa Trend Height
m
Period
s
Dir
22/11:30pm 15.6 SE 7 10 1021.2 - 0.0 - - 10 - - - -
22/11:00pm 16.1 SE 7 9 1021.1 - 0.0 - - 10 - - - -
22/10:30pm 16.5 ESE 9 11 1020.7 - 0.0 - Partly cloudy 10 - - - -
22/10:00pm 17.0 SE 11 15 1020.8 - 0.0 - Partly cloudy 10 - - - -
22/09:30pm 17.2 SE 12 16 1020.7 - 0.0 - Cloudy 10 - - - -
22/09:00pm 17.4 SE 12 16 1020.4 - 0.0 - Cloudy 10 - - - -
22/08:30pm 17.2 SE 13 16 1020.2 - 0.0 - Cloudy 10 - - - -
22/08:00pm 17.3 SE 14 21 1019.9 - 0.0 - Cloudy 10 - - - -
22/07:30pm 17.2 SSE 14 20 1019.8 - 0.0 - Cloudy 10 - - - -
22/07:00pm 17.6 SSE 14 18 1019.7 - 0.0 - Cloudy 10 - - - -
22/06:30pm 18.2 SSE 15 21 1019.3 - 0.0 - Partly cloudy 10 - - - -
22/06:25pm 18.7 SSE 15 21 1019.3 - 0.0 - Partly cloudy 10 - - - -
22/06:13pm 18.4 SSE 15 21 1019.1 - 0.0 - Partly cloudy 10 - - - -
22/06:00pm 18.6 SSE 15 19 1019.0 - 0.0 - Mostly cloudy 10 - - - -
22/05:41pm 18.5 SSE 17 21 1019.0 - 0.0 - Partly cloudy 10 - - - -
22/05:30pm 19.0 SSE 16 20 1018.9 - 0.0 - Partly cloudy 10 - - - -
22/05:00pm 19.3 SSE 17 21 1018.8 - 0.0 - Partly cloudy 10 - - - -
22/04:30pm 18.6 SSE 18 21 1018.8 - 0.0 - Partly cloudy 10 - - - -
22/04:22pm 18.7 SSE 17 22 1018.7 - 0.0 - Partly cloudy 10 - - - -
22/04:11pm 19.3 SSE 17 23 1018.6 - 0.0 - Partly cloudy 10 - - - -
22/04:00pm 19.1 SSE 17 23 1018.7 - 0.0 - Partly cloudy 10 - - - -
22/03:30pm 18.5 SSE 19 23 1018.8 - 0.0 - Partly cloudy 10 - - - -
22/03:00pm 19.0 SSE 17 21 1018.8 - 0.0 - Cloudy 10 - - - -
22/02:30pm 18.4 SSE 16 23 1018.8 - 0.0 - Cloudy 10 - - - -
22/02:00pm 18.1 SSE 17 23 1019.1 - 0.0 - Cloudy 10 - - - -
22/01:30pm 18.0 SSE 17 23 1019.3 - 0.0 - Cloudy 10 - - - -
22/01:00pm 18.1 SSE 16 21 1019.5 - 0.0 - Cloudy 10 - - - -
22/12:57pm 18.3 SSE 16 20 1019.5 - 0.0 - Cloudy 10 - - - -
22/12:30pm 18.1 SSE 16 21 1019.6 - 0.0 - Cloudy 10 - - - -
22/12:00pm 17.9 SSE 16 21 1019.9 - 0.0 - Mostly cloudy 10 - - - -
22/11:55am 18.6 SSE 15 20 1019.9 - 0.0 - Cloudy 10 - - - -
22/11:30am 17.4 SSE 16 22 1020.1 - 0.0 - Cloudy 10 - - - -
22/11:25am 17.3 SSE 16 22 1020.1 - 0.0 - Cloudy 10 - - - -
22/11:00am 17.3 SSE 12 15 1019.9 - 0.0 - Cloudy 10 - - - -
22/10:49am 17.2 SE 11 14 1019.8 - 0.0 - Cloudy 10 - - - -
22/10:30am 16.8 SE 10 16 1019.8 - 0.0 - Partly cloudy 10 - - - -
22/10:00am 16.3 SSE 11 15 1019.7 - 0.0 - Partly cloudy 10 - - - -
22/09:30am 16.2 S 11 15 1019.5 - 0.0 - Partly cloudy 10 - - - -
22/09:00am 16.2 SSE 9 11 1019.0 - 51.8 - Mostly cloudy 10 - - - -

Other Formats:

Comma delimited format used in spreadsheet applications
http://www.bom.gov.au/fwo/IDV60701/IDV60701.94837.axf

JavaScript Object Notation format (JSON) in row-major order
http://www.bom.gov.au/fwo/IDV60701/IDV60701.94837.json